Time;durP1;ratioP1;P1;durP2;ratioP2;P2;SDS_P1;SDS_P2;PMS_P1;PMS_P2;Temp;Humidity;BMP_temperature;BMP_pressure;BME280_temperature;BME280_humidity;BME280_pressure;Samples;Min_cycle;Max_cycle;Signal;HPM_P1;HPM_P2
2022/01/05 00:01:12;;;;;;;2.03;1.23;;;;;;;;;;5006853;28;20729;-52
2022/01/05 00:03:37;;;;;;;1.85;1.30;;;;;;;;;;5005291;28;20672;-52
2022/01/05 00:06:03;;;;;;;1.33;1.15;;;;;;;;;;5007322;28;20056;-55
2022/01/05 00:08:29;;;;;;;2.35;1.35;;;;;;;;;;5006921;28;20062;-54
2022/01/05 00:10:55;;;;;;;2.63;1.25;;;;;;;;;;5004530;28;20091;-56
2022/01/05 00:13:20;;;;;;;1.95;1.40;;;;;;;;;;5006908;28;20057;-54
2022/01/05 00:15:46;;;;;;;1.90;1.30;;;;;;;;;;5005446;28;20692;-56
2022/01/05 00:18:11;;;;;;;1.20;1.10;;;;;;;;;;5007936;28;20160;-53
2022/01/05 00:20:37;;;;;;;2.53;1.38;;;;;;;;;;5005393;28;20061;-53
2022/01/05 00:23:03;;;;;;;1.73;1.17;;;;;;;;;;5005997;28;20083;-53
2022/01/05 00:25:28;;;;;;;1.50;1.33;;;;;;;;;;5008173;28;20057;-53
2022/01/05 00:27:54;;;;;;;1.73;1.33;;;;;;;;;;5005135;28;20097;-55
2022/01/05 00:30:20;;;;;;;3.00;1.20;;;;;;;;;;5004317;28;20034;-53
2022/01/05 00:32:45;;;;;;;2.92;1.50;;;;;;;;;;5007040;28;20083;-58
2022/01/05 00:35:10;;;;;;;2.60;1.50;;;;;;;;;;5005299;28;20026;-54
2022/01/05 00:37:36;;;;;;;2.95;1.42;;;;;;;;;;5006925;28;20038;-54
2022/01/05 00:40:03;;;;;;;2.25;1.50;;;;;;;;;;5007436;28;20107;-56
2022/01/05 00:42:29;;;;;;;2.88;1.80;;;;;;;;;;5005543;28;20132;-56
2022/01/05 00:44:55;;;;;;;2.08;1.30;;;;;;;;;;5007644;28;20581;-52
2022/01/05 00:47:20;;;;;;;3.30;1.40;;;;;;;;;;5003138;28;20508;-56
2022/01/05 00:49:46;;;;;;;2.10;1.40;;;;;;;;;;5005299;28;20030;-53
2022/01/05 00:52:12;;;;;;;4.45;1.60;;;;;;;;;;5007844;28;20052;-56
2022/01/05 00:54:37;;;;;;;4.25;1.35;;;;;;;;;;5025708;28;20061;-56
2022/01/05 00:57:03;;;;;;;1.35;1.08;;;;;;;;;;5032047;28;20053;-52
2022/01/05 00:59:29;;;;;;;1.92;1.10;;;;;;;;;;5044165;28;20393;-56
2022/01/05 01:01:54;;;;;;;1.98;1.20;;;;;;;;;;5031321;28;20060;-56
2022/01/05 01:04:20;;;;;;;1.92;1.15;;;;;;;;;;4993361;28;20031;-56
2022/01/05 01:06:45;;;;;;;1.80;1.00;;;;;;;;;;4948901;28;20052;-55
2022/01/05 01:09:10;;;;;;;1.63;0.93;;;;;;;;;;4953872;28;20033;-52
2022/01/05 01:11:36;;;;;;;1.10;1.00;;;;;;;;;;4842870;29;20113;-55
2022/01/05 01:14:01;;;;;;;2.13;1.00;;;;;;;;;;4802654;29;20145;-56
2022/01/05 01:19:21;;;;;;;4.78;0.80;;;;;;;;;;5132195;27;20130;-60
2022/01/05 01:21:46;;;;;;;1.60;0.90;;;;;;;;;;5100157;28;20039;-61
2022/01/05 01:24:11;;;;;;;1.15;0.70;;;;;;;;;;5111783;27;20032;-61
2022/01/05 01:26:37;;;;;;;0.88;0.70;;;;;;;;;;5095017;28;20032;-61
2022/01/05 01:29:03;;;;;;;4.32;0.65;;;;;;;;;;5051977;28;20038;-60
2022/01/05 01:31:28;;;;;;;1.05;0.60;;;;;;;;;;5012736;28;20125;-58
2022/01/05 01:33:54;;;;;;;1.55;0.40;;;;;;;;;;4981485;28;20057;-58
2022/01/05 01:36:19;;;;;;;1.05;0.50;;;;;;;;;;4930905;28;20039;-60
2022/01/05 01:38:45;;;;;;;0.45;0.40;;;;;;;;;;4842308;29;20088;-60
2022/01/05 01:41:11;;;;;;;1.25;0.50;;;;;;;;;;4687568;29;20398;-56
2022/01/05 01:45:05;;;;;;;0.75;0.40;;;;;;;;;;5158446;27;20127;-61
2022/01/05 01:47:31;;;;;;;1.08;0.40;;;;;;;;;;5057224;27;1274256;-58
2022/01/05 01:49:56;;;;;;;0.45;0.30;;;;;;;;;;5093881;28;20039;-60
2022/01/05 01:52:22;;;;;;;0.82;0.40;;;;;;;;;;5096551;28;20042;-59
2022/01/05 01:54:48;;;;;;;1.88;0.22;;;;;;;;;;5094098;28;20021;-60
2022/01/05 01:57:13;;;;;;;0.80;0.45;;;;;;;;;;5093852;28;20050;-61
2022/01/05 01:59:39;;;;;;;1.35;0.40;;;;;;;;;;5095316;28;20476;-58
2022/01/05 02:02:05;;;;;;;0.50;0.30;;;;;;;;;;5093471;28;20066;-56
2022/01/05 02:04:32;;;;;;;0.88;0.32;;;;;;;;;;5095563;28;20020;-62
2022/01/05 02:06:57;;;;;;;0.20;0.20;;;;;;;;;;5094276;28;20035;-61
2022/01/05 02:09:22;;;;;;;0.50;0.40;;;;;;;;;;5093790;28;20027;-59
2022/01/05 02:11:48;;;;;;;1.10;0.60;;;;;;;;;;5095947;28;20038;-62
2022/01/05 02:14:13;;;;;;;1.60;0.40;;;;;;;;;;5093964;28;20028;-61
2022/01/05 02:16:43;;;;;;;1.27;0.77;;;;;;;;;;5092830;28;20034;-57
2022/01/05 02:19:08;;;;;;;2.50;0.45;;;;;;;;;;5072747;28;20081;-57
2022/01/05 02:21:36;;;;;;;4.85;0.70;;;;;;;;;;5070453;28;20111;-61
2022/01/05 02:24:04;;;;;;;2.13;0.60;;;;;;;;;;5074668;28;20029;-60
2022/01/05 02:26:30;;;;;;;1.55;0.60;;;;;;;;;;5073343;28;20135;-60
2022/01/05 02:28:55;;;;;;;1.40;0.60;;;;;;;;;;5058386;28;20041;-61
2022/01/05 02:31:21;;;;;;;0.88;0.63;;;;;;;;;;5073067;28;20035;-60
2022/01/05 02:33:47;;;;;;;1.42;0.50;;;;;;;;;;5074555;28;20035;-59
2022/01/05 02:36:17;;;;;;;0.63;0.50;;;;;;;;;;5073309;28;20037;-60
2022/01/05 02:38:42;;;;;;;2.08;0.40;;;;;;;;;;5074647;28;20079;-53
2022/01/05 02:41:10;;;;;;;0.82;0.60;;;;;;;;;;5074741;28;20075;-57
2022/01/05 02:43:37;;;;;;;0.55;0.50;;;;;;;;;;5075664;28;20017;-60
2022/01/05 02:46:03;;;;;;;1.50;0.70;;;;;;;;;;5069203;28;20016;-60
2022/01/05 02:48:30;;;;;;;0.70;0.40;;;;;;;;;;5080918;28;20031;-59
2022/01/05 02:50:57;;;;;;;1.90;0.40;;;;;;;;;;5077605;28;20032;-59
2022/01/05 02:53:23;;;;;;;1.02;0.60;;;;;;;;;;5079340;28;20031;-59
2022/01/05 02:55:48;;;;;;;0.63;0.43;;;;;;;;;;5068476;28;20081;-60
2022/01/05 02:58:14;;;;;;;2.00;0.50;;;;;;;;;;5065790;28;20021;-60
2022/01/05 03:00:39;;;;;;;0.85;0.52;;;;;;;;;;5067316;28;20039;-61
2022/01/05 03:03:05;;;;;;;0.90;0.50;;;;;;;;;;5065608;28;20124;-54
2022/01/05 03:05:30;;;;;;;1.08;0.40;;;;;;;;;;5067224;28;21113;-61
2022/01/05 03:07:55;;;;;;;4.53;0.40;;;;;;;;;;5066796;28;20146;-60
2022/01/05 03:10:21;;;;;;;0.70;0.40;;;;;;;;;;5066391;28;20028;-61
2022/01/05 03:12:46;;;;;;;1.20;0.45;;;;;;;;;;5066402;28;20668;-59
2022/01/05 03:15:12;;;;;;;0.35;0.20;;;;;;;;;;5068320;28;20032;-60
2022/01/05 03:17:38;;;;;;;0.30;0.30;;;;;;;;;;5067421;28;20036;-60
2022/01/05 03:20:04;;;;;;;0.50;0.30;;;;;;;;;;5065867;28;20086;-59
2022/01/05 03:22:29;;;;;;;0.65;0.35;;;;;;;;;;5065925;28;20032;-59
2022/01/05 03:24:54;;;;;;;0.55;0.43;;;;;;;;;;5066318;28;20027;-60
2022/01/05 03:27:20;;;;;;;0.13;0.13;;;;;;;;;;5054625;28;20070;-60
2022/01/05 03:29:45;;;;;;;0.70;0.40;;;;;;;;;;5065484;28;20376;-59
2022/01/05 03:32:11;;;;;;;1.17;0.20;;;;;;;;;;5066133;28;20024;-60
2022/01/05 03:34:37;;;;;;;0.68;0.40;;;;;;;;;;5064935;28;20020;-60
2022/01/05 03:37:04;;;;;;;2.58;0.40;;;;;;;;;;5065396;28;20119;-60
2022/01/05 03:39:29;;;;;;;1.80;0.45;;;;;;;;;;5066620;28;20029;-58
2022/01/05 03:41:54;;;;;;;1.27;0.15;;;;;;;;;;5051139;28;20138;-60
2022/01/05 03:44:20;;;;;;;1.70;0.40;;;;;;;;;;5066715;28;20025;-61
2022/01/05 03:46:45;;;;;;;0.93;0.22;;;;;;;;;;5067027;28;20047;-58
2022/01/05 03:49:11;;;;;;;1.25;0.40;;;;;;;;;;5066575;28;20408;-59
2022/01/05 03:51:36;;;;;;;1.42;0.30;;;;;;;;;;5066457;28;20093;-60
2022/01/05 03:54:02;;;;;;;5.68;0.60;;;;;;;;;;5065036;28;20400;-57
2022/01/05 03:56:27;;;;;;;1.23;0.38;;;;;;;;;;5064681;28;20021;-57
2022/01/05 03:58:53;;;;;;;1.45;0.47;;;;;;;;;;5065312;28;20036;-63
2022/01/05 04:01:18;;;;;;;1.33;0.38;;;;;;;;;;5064744;28;20102;-60
2022/01/05 04:03:44;;;;;;;0.63;0.20;;;;;;;;;;5064540;28;20037;-59
2022/01/05 04:06:10;;;;;;;1.75;0.60;;;;;;;;;;5064616;28;20101;-58
2022/01/05 04:08:35;;;;;;;4.07;0.55;;;;;;;;;;5062583;28;20477;-59
2022/01/05 04:11:01;;;;;;;2.95;0.60;;;;;;;;;;5049980;28;20441;-62
2022/01/05 04:13:26;;;;;;;5.30;0.50;;;;;;;;;;5065877;28;20467;-60
2022/01/05 04:15:51;;;;;;;4.15;0.73;;;;;;;;;;5067911;28;20531;-59
2022/01/05 04:18:17;;;;;;;2.83;0.52;;;;;;;;;;5065309;28;20017;-60
2022/01/05 04:20:42;;;;;;;1.67;0.50;;;;;;;;;;5049215;28;20032;-59
2022/01/05 04:23:08;;;;;;;2.72;0.43;;;;;;;;;;5065716;28;20443;-58
2022/01/05 04:25:33;;;;;;;2.72;0.60;;;;;;;;;;5065727;28;20447;-60
2022/01/05 04:28:03;;;;;;;3.58;0.60;;;;;;;;;;5063694;28;20043;-59
2022/01/05 04:30:28;;;;;;;1.33;0.82;;;;;;;;;;5064554;28;20116;-56
2022/01/05 04:32:54;;;;;;;2.50;0.75;;;;;;;;;;5065456;28;20107;-59
2022/01/05 04:35:20;;;;;;;5.63;0.80;;;;;;;;;;5066161;28;20021;-53
2022/01/05 04:37:45;;;;;;;3.35;0.82;;;;;;;;;;5062789;28;20104;-59
2022/01/05 04:40:11;;;;;;;4.43;1.23;;;;;;;;;;5063459;28;20078;-59
2022/01/05 04:42:37;;;;;;;4.45;1.20;;;;;;;;;;5064852;28;20070;-58
2022/01/05 04:45:04;;;;;;;5.10;1.15;;;;;;;;;;5064868;28;20035;-57
2022/01/05 04:47:29;;;;;;;4.65;1.25;;;;;;;;;;5064787;28;20032;-60
2022/01/05 04:49:54;;;;;;;5.95;1.38;;;;;;;;;;5062702;28;20071;-59
2022/01/05 04:52:20;;;;;;;3.40;1.30;;;;;;;;;;5064811;28;20486;-56
2022/01/05 04:54:46;;;;;;;3.72;1.30;;;;;;;;;;5065918;28;20050;-60
2022/01/05 04:57:15;;;;;;;3.70;1.23;;;;;;;;;;5063014;28;20037;-60
2022/01/05 04:59:41;;;;;;;6.93;1.70;;;;;;;;;;5064654;28;20040;-57
2022/01/05 05:02:06;;;;;;;9.15;1.42;;;;;;;;;;5063135;28;20029;-59
2022/01/05 05:04:32;;;;;;;6.25;1.55;;;;;;;;;;5064502;28;20032;-54
2022/01/05 05:06:57;;;;;;;8.23;1.85;;;;;;;;;;5066066;28;20027;-58
2022/01/05 05:09:22;;;;;;;10.35;1.52;;;;;;;;;;5062830;28;20051;-60
2022/01/05 05:11:49;;;;;;;3.35;1.13;;;;;;;;;;5064514;28;20532;-60
2022/01/05 05:14:14;;;;;;;8.32;1.10;;;;;;;;;;5066412;28;20017;-61
2022/01/05 05:16:39;;;;;;;7.90;1.23;;;;;;;;;;5049912;28;20059;-55
2022/01/05 05:19:05;;;;;;;7.63;1.05;;;;;;;;;;5064363;28;20017;-49
2022/01/05 05:21:30;;;;;;;6.88;1.08;;;;;;;;;;5064497;28;20107;-50
2022/01/05 05:23:56;;;;;;;7.50;1.50;;;;;;;;;;5062357;28;20021;-54
2022/01/05 05:26:21;;;;;;;6.20;1.20;;;;;;;;;;5063250;28;20540;-52
2022/01/05 05:28:46;;;;;;;2.85;0.88;;;;;;;;;;5063244;28;20529;-51
2022/01/05 05:31:12;;;;;;;2.80;0.90;;;;;;;;;;5063549;28;20028;-50
2022/01/05 05:33:38;;;;;;;3.90;0.90;;;;;;;;;;5064108;28;20066;-55
2022/01/05 05:36:03;;;;;;;2.88;1.02;;;;;;;;;;5048628;28;20025;-49
2022/01/05 05:38:29;;;;;;;4.93;1.20;;;;;;;;;;5064136;28;20040;-49
2022/01/05 05:40:54;;;;;;;2.10;0.90;;;;;;;;;;5065985;28;20099;-52
2022/01/05 05:43:20;;;;;;;5.78;1.40;;;;;;;;;;5049435;28;20060;-51
2022/01/05 05:45:46;;;;;;;5.53;1.00;;;;;;;;;;5063771;28;20040;-52
2022/01/05 05:48:11;;;;;;;4.85;0.85;;;;;;;;;;5063820;28;20029;-54
2022/01/05 05:50:37;;;;;;;3.15;0.82;;;;;;;;;;5064577;28;20035;-54
2022/01/05 05:53:02;;;;;;;3.30;0.75;;;;;;;;;;5061392;28;20031;-54
2022/01/05 05:55:27;;;;;;;5.18;1.27;;;;;;;;;;5050537;28;20036;-50
2022/01/05 05:57:53;;;;;;;4.15;1.30;;;;;;;;;;5063804;28;20024;-52
2022/01/05 06:00:18;;;;;;;3.80;0.85;;;;;;;;;;5063103;28;20021;-50
2022/01/05 06:02:44;;;;;;;4.82;0.95;;;;;;;;;;5063169;28;20530;-52
2022/01/05 06:05:10;;;;;;;5.82;1.00;;;;;;;;;;5064457;28;20029;-53
2022/01/05 06:07:35;;;;;;;6.20;0.93;;;;;;;;;;5063883;28;20066;-51
2022/01/05 06:10:01;;;;;;;4.53;1.05;;;;;;;;;;5064267;28;20171;-50
2022/01/05 06:12:27;;;;;;;2.10;0.73;;;;;;;;;;5063582;28;20484;-50
2022/01/05 06:14:52;;;;;;;2.85;0.80;;;;;;;;;;5064234;28;20025;-51
2022/01/05 06:17:18;;;;;;;5.43;1.25;;;;;;;;;;5064428;28;20031;-51
2022/01/05 06:19:43;;;;;;;2.97;1.38;;;;;;;;;;5063479;28;20396;-53
2022/01/05 06:22:09;;;;;;;3.20;0.88;;;;;;;;;;5047353;28;20079;-49
2022/01/05 06:24:39;;;;;;;2.78;0.95;;;;;;;;;;5065603;28;20150;-52
2022/01/05 06:27:06;;;;;;;3.63;0.80;;;;;;;;;;5062850;28;20028;-49
2022/01/05 06:29:31;;;;;;;5.40;1.10;;;;;;;;;;5046518;28;20393;-54
2022/01/05 06:31:56;;;;;;;5.60;1.23;;;;;;;;;;5060768;28;20031;-53
2022/01/05 06:34:22;;;;;;;5.15;0.82;;;;;;;;;;5063382;28;20055;-50
2022/01/05 06:36:47;;;;;;;6.82;0.90;;;;;;;;;;5047719;28;20099;-53
2022/01/05 06:39:13;;;;;;;7.68;1.05;;;;;;;;;;5062118;28;20029;-51
2022/01/05 06:41:38;;;;;;;3.10;1.38;;;;;;;;;;5062174;28;20040;-51
2022/01/05 06:44:04;;;;;;;5.95;1.02;;;;;;;;;;5047521;28;20048;-53
2022/01/05 06:46:29;;;;;;;4.50;1.00;;;;;;;;;;5061406;28;20039;-49
2022/01/05 06:48:55;;;;;;;5.25;0.93;;;;;;;;;;5063256;28;20032;-53
2022/01/05 06:51:20;;;;;;;5.15;0.93;;;;;;;;;;5061210;28;20571;-51
2022/01/05 06:53:45;;;;;;;8.55;1.25;;;;;;;;;;5062651;28;20499;-50
2022/01/05 06:56:11;;;;;;;5.03;1.08;;;;;;;;;;5061325;28;20123;-54
2022/01/05 06:58:36;;;;;;;6.93;1.13;;;;;;;;;;5060542;28;20025;-51
2022/01/05 07:01:02;;;;;;;2.65;0.90;;;;;;;;;;5062804;28;21846;-51
2022/01/05 07:03:27;;;;;;;3.60;0.90;;;;;;;;;;5062500;28;20522;-51
2022/01/05 07:05:52;;;;;;;5.68;0.70;;;;;;;;;;5063518;28;20036;-51
2022/01/05 07:08:19;;;;;;;4.30;1.02;;;;;;;;;;5066461;28;20054;-50
2022/01/05 07:10:44;;;;;;;3.88;1.10;;;;;;;;;;5066943;28;20028;-48
2022/01/05 07:13:10;;;;;;;2.72;0.88;;;;;;;;;;5065803;28;20050;-50
2022/01/05 07:15:35;;;;;;;5.85;0.98;;;;;;;;;;5067262;28;20401;-48
2022/01/05 07:18:01;;;;;;;5.63;0.80;;;;;;;;;;5063129;28;20032;-49
2022/01/05 07:20:26;;;;;;;2.22;0.77;;;;;;;;;;5067809;28;20084;-50
2022/01/05 07:22:51;;;;;;;6.72;1.23;;;;;;;;;;5070168;28;20041;-49
2022/01/05 07:25:17;;;;;;;3.83;0.82;;;;;;;;;;5066498;28;20043;-51
2022/01/05 07:27:43;;;;;;;6.68;1.20;;;;;;;;;;5065938;28;20044;-50
2022/01/05 07:30:09;;;;;;;4.95;0.90;;;;;;;;;;5066594;28;20028;-49
2022/01/05 07:32:34;;;;;;;6.32;1.25;;;;;;;;;;5067726;28;20036;-49
2022/01/05 07:35:00;;;;;;;3.75;1.02;;;;;;;;;;5049296;28;20033;-51
2022/01/05 07:37:25;;;;;;;3.03;0.95;;;;;;;;;;5065399;28;20036;-52
2022/01/05 07:39:51;;;;;;;4.72;0.77;;;;;;;;;;5064167;28;20026;-48
2022/01/05 07:42:16;;;;;;;4.75;0.90;;;;;;;;;;5062859;28;20055;-52
2022/01/05 07:44:42;;;;;;;4.40;1.10;;;;;;;;;;5065167;28;20089;-50
2022/01/05 07:47:08;;;;;;;6.00;0.68;;;;;;;;;;5056964;28;20029;-54
2022/01/05 07:49:34;;;;;;;9.88;1.10;;;;;;;;;;5046285;28;20063;-49
2022/01/05 07:51:59;;;;;;;3.05;0.93;;;;;;;;;;5045276;28;20431;-48
2022/01/05 07:54:25;;;;;;;5.63;0.75;;;;;;;;;;5046548;28;20531;-53
2022/01/05 07:56:50;;;;;;;5.95;1.13;;;;;;;;;;5046133;28;20029;-53
2022/01/05 07:59:15;;;;;;;3.88;0.80;;;;;;;;;;5044085;28;20404;-52
2022/01/05 08:01:41;;;;;;;6.13;0.93;;;;;;;;;;5047307;28;20027;-52
2022/01/05 08:04:06;;;;;;;3.55;1.02;;;;;;;;;;5045818;28;20037;-48
2022/01/05 08:06:32;;;;;;;4.20;0.85;;;;;;;;;;5045148;28;20037;-50
2022/01/05 08:08:57;;;;;;;4.13;1.00;;;;;;;;;;5045945;28;20037;-53
2022/01/05 08:11:23;;;;;;;5.28;0.85;;;;;;;;;;5045899;28;20515;-53
2022/01/05 08:13:48;;;;;;;4.72;0.90;;;;;;;;;;5047459;28;20071;-52
2022/01/05 08:16:14;;;;;;;5.00;1.20;;;;;;;;;;5045177;28;20712;-54
2022/01/05 08:18:40;;;;;;;5.20;0.95;;;;;;;;;;5044448;28;20108;-53
2022/01/05 08:21:06;;;;;;;4.93;0.75;;;;;;;;;;5046825;28;20151;-53
2022/01/05 08:23:31;;;;;;;6.15;1.38;;;;;;;;;;5045745;28;20231;-50
2022/01/05 08:25:57;;;;;;;9.55;1.13;;;;;;;;;;5029845;28;20032;-49
2022/01/05 08:28:22;;;;;;;3.88;1.23;;;;;;;;;;5045368;28;20037;-51
2022/01/05 08:30:48;;;;;;;7.55;1.15;;;;;;;;;;5045438;28;20485;-49
2022/01/05 08:33:15;;;;;;;4.60;1.17;;;;;;;;;;5048632;28;20024;-52
2022/01/05 08:35:41;;;;;;;3.55;0.93;;;;;;;;;;5045076;28;20052;-51
2022/01/05 08:38:07;;;;;;;5.10;0.82;;;;;;;;;;5042432;28;20029;-52
2022/01/05 08:40:34;;;;;;;7.18;1.20;;;;;;;;;;5045415;28;20477;-51
2022/01/05 08:43:05;;;;;;;4.43;1.83;;;;;;;;;;5042762;28;20047;-50
2022/01/05 08:45:31;;;;;;;9.70;1.13;;;;;;;;;;5047045;28;20400;-52
2022/01/05 08:47:58;;;;;;;5.90;1.05;;;;;;;;;;5044466;28;20033;-49
2022/01/05 08:50:27;;;;;;;3.88;1.30;;;;;;;;;;5044484;28;20132;-47
2022/01/05 08:52:53;;;;;;;11.55;1.65;;;;;;;;;;5046276;28;20031;-48
2022/01/05 08:55:22;;;;;;;9.05;1.65;;;;;;;;;;5029630;28;20477;-53
2022/01/05 08:57:49;;;;;;;5.47;1.05;;;;;;;;;;5045969;28;20507;-48
2022/01/05 09:00:15;;;;;;;9.43;1.50;;;;;;;;;;5043354;28;20032;-51
2022/01/05 09:02:41;;;;;;;7.55;1.40;;;;;;;;;;5045968;28;20484;-48
2022/01/05 09:05:07;;;;;;;5.25;1.38;;;;;;;;;;5040649;28;20029;-50
2022/01/05 09:07:33;;;;;;;7.60;1.20;;;;;;;;;;5042363;28;20473;-51
2022/01/05 09:09:58;;;;;;;3.38;1.25;;;;;;;;;;5044862;28;20033;-52
2022/01/05 09:12:23;;;;;;;4.53;1.02;;;;;;;;;;5047125;28;20385;-54
2022/01/05 09:14:49;;;;;;;6.47;1.48;;;;;;;;;;5044381;28;20064;-52
2022/01/05 09:17:15;;;;;;;9.63;1.25;;;;;;;;;;5045870;28;20516;-53
2022/01/05 09:19:42;;;;;;;5.15;1.27;;;;;;;;;;5029389;28;20028;-49
2022/01/05 09:22:08;;;;;;;9.18;1.52;;;;;;;;;;5043827;28;20032;-48
2022/01/05 09:24:34;;;;;;;6.15;1.73;;;;;;;;;;5044580;28;20036;-53
2022/01/05 09:27:03;;;;;;;3.88;1.00;;;;;;;;;;5044363;28;20029;-50
2022/01/05 09:29:32;;;;;;;8.20;1.13;;;;;;;;;;5044631;28;20029;-51
2022/01/05 09:31:58;;;;;;;6.10;1.80;;;;;;;;;;5045595;28;20563;-51
2022/01/05 09:34:24;;;;;;;5.07;1.33;;;;;;;;;;5043522;28;20393;-52
2022/01/05 09:36:57;;;;;;;6.50;1.52;;;;;;;;;;5043642;28;20119;-48
2022/01/05 09:42:07;;;;;;;4.45;1.08;;;;;;;;;;5042776;28;20496;-55
2022/01/05 09:44:34;;;;;;;5.13;1.25;;;;;;;;;;5043626;28;20797;-48
2022/01/05 09:46:59;;;;;;;8.10;1.67;;;;;;;;;;5038228;28;20093;-52
2022/01/05 09:49:35;;;;;;;10.73;1.60;;;;;;;;;;5064938;28;20033;-52
2022/01/05 09:52:09;;;;;;;4.60;1.30;;;;;;;;;;5063237;28;20086;-50
2022/01/05 09:54:35;;;;;;;;;;;;;;;;;;5063868;28;20050;-46
2022/01/05 09:57:00;;;;;;;8.98;1.35;;;;;;;;;;5064268;28;19924;-51
2022/01/05 09:59:26;;;;;;;3.53;0.80;;;;;;;;;;5064111;28;20017;-52
2022/01/05 10:01:52;;;;;;;10.00;1.40;;;;;;;;;;5062135;28;20117;-48
2022/01/05 10:04:17;;;;;;;12.18;1.65;;;;;;;;;;5064463;28;20130;-51
2022/01/05 10:06:43;;;;;;;7.00;1.70;;;;;;;;;;5064405;28;20047;-54
2022/01/05 10:09:08;;;;;;;5.95;1.33;;;;;;;;;;5066366;28;20038;-50
2022/01/05 10:11:35;;;;;;;7.57;1.35;;;;;;;;;;5067542;28;20475;-53
2022/01/05 10:14:01;;;;;;;6.78;1.88;;;;;;;;;;5067047;28;20075;-51
2022/01/05 10:16:27;;;;;;;6.43;1.50;;;;;;;;;;5064079;28;20024;-49
2022/01/05 10:18:52;;;;;;;7.38;1.55;;;;;;;;;;5067002;28;20070;-50
2022/01/05 10:21:18;;;;;;;4.70;1.02;;;;;;;;;;5064476;28;20052;-48
2022/01/05 10:23:52;;;;;;;4.05;1.08;;;;;;;;;;5066654;28;20124;-52
2022/01/05 10:26:30;;;;;;;5.85;1.33;;;;;;;;;;5066432;28;20465;-49
2022/01/05 10:29:14;;;;;;;4.53;1.77;;;;;;;;;;5064244;28;20119;-53
2022/01/05 10:31:40;;;;;;;;;;;;;;;;;;5067236;28;20032;-49
2022/01/05 10:34:26;;;;;;;4.32;1.13;;;;;;;;;;5068128;28;19923;-51
2022/01/05 10:36:57;;;;;;;5.45;1.13;;;;;;;;;;5065821;28;20069;-48
2022/01/05 10:39:35;;;;;;;6.40;1.20;;;;;;;;;;5066069;28;20107;-50
2022/01/05 10:42:08;;;;;;;6.38;1.23;;;;;;;;;;5068312;28;20036;-51
2022/01/05 10:44:34;;;;;;;;;;;;;;;;;;5068244;28;20048;-47
2022/01/05 10:47:01;;;;;;;6.15;1.10;;;;;;;;;;5070994;28;20364;-48
2022/01/05 10:49:35;;;;;;;5.80;1.02;;;;;;;;;;5066096;28;20451;-48
2022/01/05 10:52:22;;;;;;;8.82;1.67;;;;;;;;;;5066249;28;20028;-51
2022/01/05 10:54:49;;;;;;;4.95;1.17;;;;;;;;;;5070907;28;20017;-53
2022/01/05 10:57:14;;;;;;;6.18;1.13;;;;;;;;;;5065728;28;20032;-49
2022/01/05 10:59:43;;;;;;;5.18;1.55;;;;;;;;;;5051400;28;20039;-53
2022/01/05 11:02:23;;;;;;;7.32;1.17;;;;;;;;;;5069152;28;20484;-48
2022/01/05 11:05:13;;;;;;;12.30;1.40;;;;;;;;;;5066541;28;20477;-50
2022/01/05 11:07:41;;;;;;;3.63;1.33;;;;;;;;;;5066870;28;20041;-51
2022/01/05 11:10:10;;;;;;;5.78;0.88;;;;;;;;;;5067956;28;20048;-52
2022/01/05 11:12:37;;;;;;;6.18;0.88;;;;;;;;;;5054434;28;20090;-53
2022/01/05 11:15:22;;;;;;;6.18;1.08;;;;;;;;;;5068993;28;20516;-51
2022/01/05 11:18:16;;;;;;;7.28;1.10;;;;;;;;;;5067380;28;20055;-52
2022/01/05 11:20:44;;;;;;;3.95;1.15;;;;;;;;;;5066970;28;20618;-51
2022/01/05 11:23:10;;;;;;;5.05;1.10;;;;;;;;;;5067014;28;20040;-50
2022/01/05 11:25:37;;;;;;;6.03;1.33;;;;;;;;;;5069223;28;20037;-49
2022/01/05 11:28:05;;;;;;;5.05;1.00;;;;;;;;;;5068073;28;20039;-51
2022/01/05 11:30:31;;;;;;;7.88;1.30;;;;;;;;;;5068562;28;20587;-53
2022/01/05 11:32:57;;;;;;;3.70;1.27;;;;;;;;;;5068085;28;20064;-50
2022/01/05 11:35:23;;;;;;;8.45;1.48;;;;;;;;;;5065610;28;20558;-52
2022/01/05 11:37:49;;;;;;;6.15;1.30;;;;;;;;;;5068201;28;20021;-52
2022/01/05 11:40:16;;;;;;;5.00;1.17;;;;;;;;;;5069847;28;20036;-48
2022/01/05 11:42:46;;;;;;;6.65;1.27;;;;;;;;;;5065924;28;20120;-52
2022/01/05 11:45:11;;;;;;;6.18;1.20;;;;;;;;;;5069821;28;20112;-48
2022/01/05 11:47:40;;;;;;;4.65;1.00;;;;;;;;;;5064278;28;20159;-50
2022/01/05 11:50:24;;;;;;;5.22;0.93;;;;;;;;;;5065945;28;20025;-50
2022/01/05 11:52:58;;;;;;;6.22;1.60;;;;;;;;;;5065680;28;20089;-54
2022/01/05 11:55:24;;;;;;;6.45;1.17;;;;;;;;;;5064668;28;20044;-53
2022/01/05 11:58:13;;;;;;;8.57;1.10;;;;;;;;;;5066631;28;20025;-50
2022/01/05 12:00:39;;;;;;;8.32;1.13;;;;;;;;;;5055644;28;20396;-52
2022/01/05 12:03:05;;;;;;;2.78;0.80;;;;;;;;;;5066067;28;20025;-53
2022/01/05 12:06:07;;;;;;;7.05;1.05;;;;;;;;;;5064105;28;20032;-51
2022/01/05 12:08:44;;;;;;;7.47;1.35;;;;;;;;;;5065502;28;20033;-51
2022/01/05 12:11:35;;;;;;;3.50;1.00;;;;;;;;;;5067754;28;20405;-53
2022/01/05 12:14:03;;;;;;;4.93;0.80;;;;;;;;;;5066897;28;20412;-47
2022/01/05 12:16:29;;;;;;;10.63;1.65;;;;;;;;;;5065934;28;20095;-51
2022/01/05 12:19:11;;;;;;;7.70;1.20;;;;;;;;;;5053784;28;20170;-51
2022/01/05 12:21:43;;;;;;;6.53;1.40;;;;;;;;;;5065156;28;20397;-49
2022/01/05 12:24:08;;;;;;;5.18;1.40;;;;;;;;;;5067054;28;20278;-52
2022/01/05 12:26:34;;;;;;;5.40;1.20;;;;;;;;;;5067557;28;20493;-56
2022/01/05 12:28:59;;;;;;;5.18;1.35;;;;;;;;;;5066055;28;20712;-50
2022/01/05 12:32:00;;;;;;;9.00;1.85;;;;;;;;;;5066318;28;20430;-53
2022/01/05 12:34:57;;;;;;;4.53;0.90;;;;;;;;;;5066537;28;20433;-53
2022/01/05 12:37:44;;;;;;;3.25;0.90;;;;;;;;;;5065085;28;20476;-52
2022/01/05 12:40:37;;;;;;;4.63;0.95;;;;;;;;;;5065796;28;20456;-51
2022/01/05 12:43:08;;;;;;;8.07;1.20;;;;;;;;;;5064662;28;20550;-48
2022/01/05 12:46:00;;;;;;;10.65;1.45;;;;;;;;;;5064887;28;20032;-54
2022/01/05 12:48:39;;;;;;;4.15;0.90;;;;;;;;;;5067964;28;20020;-52
2022/01/05 12:51:17;;;;;;;7.45;1.17;;;;;;;;;;5053045;28;20016;-52
2022/01/05 12:53:54;;;;;;;5.78;1.10;;;;;;;;;;5062952;28;20029;-51
2022/01/05 12:56:30;;;;;;;6.43;1.30;;;;;;;;;;5054956;28;20036;-50
2022/01/05 12:58:57;;;;;;;4.88;1.00;;;;;;;;;;5064595;28;20082;-50
2022/01/05 13:01:24;;;;;;;6.65;1.23;;;;;;;;;;5065084;28;20028;-53
2022/01/05 13:03:51;;;;;;;6.97;0.95;;;;;;;;;;5067251;28;20397;-50
2022/01/05 13:06:21;;;;;;;2.58;0.70;;;;;;;;;;5070122;28;20546;-52
2022/01/05 13:08:58;;;;;;;6.10;1.10;;;;;;;;;;5067283;28;20028;-52
2022/01/05 13:11:45;;;;;;;4.90;1.20;;;;;;;;;;5047761;28;20028;-53
2022/01/05 13:14:10;;;;;;;5.38;1.20;;;;;;;;;;5065500;28;20539;-49
2022/01/05 13:16:36;;;;;;;5.80;1.40;;;;;;;;;;5066146;28;20028;-54
2022/01/05 13:19:02;;;;;;;7.65;1.63;;;;;;;;;;5064310;28;20089;-52
2022/01/05 13:21:47;;;;;;;4.78;1.23;;;;;;;;;;5066453;28;20052;-49
2022/01/05 13:24:13;;;;;;;8.18;1.08;;;;;;;;;;5060696;28;20071;-51
2022/01/05 13:27:01;;;;;;;6.15;1.20;;;;;;;;;;5063892;28;20446;-53
2022/01/05 13:29:28;;;;;;;5.95;1.30;;;;;;;;;;5062897;28;20029;-52
2022/01/05 13:32:00;;;;;;;5.47;1.30;;;;;;;;;;5063469;28;20032;-52
2022/01/05 13:34:30;;;;;;;5.68;1.52;;;;;;;;;;5061679;28;20035;-50
2022/01/05 13:36:55;;;;;;;5.13;1.10;;;;;;;;;;5067372;28;20042;-50
2022/01/05 13:39:42;;;;;;;7.85;1.17;;;;;;;;;;5065880;28;20462;-55
2022/01/05 13:42:10;;;;;;;4.18;1.20;;;;;;;;;;5066433;28;20029;-51
2022/01/05 13:44:37;;;;;;;7.38;1.10;;;;;;;;;;5062751;28;20128;-50
2022/01/05 13:47:04;;;;;;;4.63;1.00;;;;;;;;;;5064871;28;20063;-51
2022/01/05 13:49:30;;;;;;;4.60;0.98;;;;;;;;;;5064242;28;20032;-53
2022/01/05 13:52:04;;;;;;;7.72;1.20;;;;;;;;;;5064697;28;20036;-49
2022/01/05 13:54:32;;;;;;;8.63;1.25;;;;;;;;;;5060498;28;20028;-52
2022/01/05 13:56:57;;;;;;;8.00;1.55;;;;;;;;;;5062486;28;20724;-48
2022/01/05 13:59:22;;;;;;;4.55;0.95;;;;;;;;;;5061646;28;20025;-54
2022/01/05 14:01:58;;;;;;;4.82;1.02;;;;;;;;;;5064480;28;20029;-55
2022/01/05 14:04:24;;;;;;;8.85;1.33;;;;;;;;;;5063399;28;20024;-55
2022/01/05 14:07:00;;;;;;;5.15;0.95;;;;;;;;;;5047518;28;20028;-49
2022/01/05 14:09:29;;;;;;;5.45;1.02;;;;;;;;;;5062469;28;20029;-55
2022/01/05 14:11:57;;;;;;;10.15;1.70;;;;;;;;;;5064905;28;20048;-52
2022/01/05 14:14:24;;;;;;;7.18;1.70;;;;;;;;;;5064391;28;20108;-54
2022/01/05 14:16:51;;;;;;;11.07;1.65;;;;;;;;;;5063974;28;20035;-52
2022/01/05 14:19:22;;;;;;;4.05;1.25;;;;;;;;;;5064640;28;20025;-55
2022/01/05 14:21:49;;;;;;;7.57;1.48;;;;;;;;;;5062843;28;20408;-55
2022/01/05 14:24:16;;;;;;;4.80;1.25;;;;;;;;;;5048791;28;20024;-51
2022/01/05 14:26:41;;;;;;;4.68;1.08;;;;;;;;;;5062920;28;20396;-54
2022/01/05 14:29:08;;;;;;;7.00;1.23;;;;;;;;;;5063187;28;20029;-53
2022/01/05 14:31:39;;;;;;;7.28;1.38;;;;;;;;;;5062848;28;20040;-53
2022/01/05 14:34:10;;;;;;;9.02;1.42;;;;;;;;;;5055357;28;20362;-52
2022/01/05 14:36:38;;;;;;;6.03;1.13;;;;;;;;;;5060160;28;20037;-50
2022/01/05 14:39:13;;;;;;;3.97;0.95;;;;;;;;;;5055155;28;20433;-50
2022/01/05 14:42:01;;;;;;;1.80;0.75;;;;;;;;;;5058567;28;20048;-51
2022/01/05 14:44:33;;;;;;;3.70;1.00;;;;;;;;;;5056957;28;20351;-57
2022/01/05 14:47:01;;;;;;;6.57;1.17;;;;;;;;;;5044392;28;20222;-57
2022/01/05 14:49:28;;;;;;;6.15;1.23;;;;;;;;;;5040296;28;20029;-57
2022/01/05 14:51:54;;;;;;;4.90;0.90;;;;;;;;;;5058907;28;20048;-55
2022/01/05 14:54:26;;;;;;;6.15;1.20;;;;;;;;;;5061772;28;20550;-54